sensor_id;sensor_type;location;lat;lon;timestamp;P1;durP1;ratioP1;P2;durP2;ratioP2
2662;SDS011;49701;48.072;7.800;2023-08-21T11:09:41;7.15;;;5.45;;
2662;SDS011;49701;48.072;7.800;2023-08-21T11:12:08;9.02;;;5.45;;
2662;SDS011;49701;48.072;7.800;2023-08-21T11:14:35;8.23;;;5.70;;
2662;SDS011;49701;48.072;7.800;2023-08-21T11:17:01;8.43;;;5.35;;
2662;SDS011;49701;48.072;7.800;2023-08-21T11:19:30;8.15;;;5.97;;
2662;SDS011;49701;48.072;7.800;2023-08-21T11:21:56;9.65;;;5.40;;
2662;SDS011;49701;48.072;7.800;2023-08-21T11:24:29;8.90;;;5.88;;
2662;SDS011;49701;48.072;7.800;2023-08-21T11:26:55;9.55;;;5.40;;
2662;SDS011;49701;48.072;7.800;2023-08-21T11:29:21;5.95;;;5.40;;
2662;SDS011;49701;48.072;7.800;2023-08-21T11:31:47;13.20;;;5.97;;
2662;SDS011;49701;48.072;7.800;2023-08-21T11:34:21;6.88;;;5.20;;
2662;SDS011;49701;48.072;7.800;2023-08-21T11:36:46;8.68;;;5.43;;
2662;SDS011;49701;48.072;7.800;2023-08-21T11:39:12;12.35;;;5.15;;
2662;SDS011;49701;48.072;7.800;2023-08-21T11:41:54;7.00;;;5.07;;
2662;SDS011;49701;48.072;7.800;2023-08-21T11:44:24;5.82;;;4.45;;
2662;SDS011;49701;48.072;7.800;2023-08-21T11:46:52;8.38;;;4.93;;
2662;SDS011;49701;48.072;7.800;2023-08-21T11:49:18;5.75;;;4.30;;
2662;SDS011;49701;48.072;7.800;2023-08-21T11:51:44;6.82;;;5.10;;
2662;SDS011;49701;48.072;7.800;2023-08-21T11:54:11;10.43;;;5.88;;
2662;SDS011;49701;48.072;7.800;2023-08-21T11:56:38;7.95;;;5.28;;
2662;SDS011;49701;48.072;7.800;2023-08-21T11:59:06;9.10;;;5.22;;
2662;SDS011;49701;48.072;7.800;2023-08-21T12:01:32;10.20;;;5.32;;
2662;SDS011;49701;48.072;7.800;2023-08-21T12:03:59;8.20;;;5.47;;
2662;SDS011;49701;48.072;7.800;2023-08-21T12:06:24;6.45;;;4.75;;
2662;SDS011;49701;48.072;7.800;2023-08-21T12:08:51;7.15;;;4.63;;
2662;SDS011;49701;48.072;7.800;2023-08-21T12:13:43;12.43;;;5.25;;
2662;SDS011;49701;48.072;7.800;2023-08-21T12:16:08;8.90;;;5.00;;
2662;SDS011;49701;48.072;7.800;2023-08-21T12:18:34;8.70;;;4.85;;
2662;SDS011;49701;48.072;7.800;2023-08-21T12:20:59;8.60;;;5.35;;
2662;SDS011;49701;48.072;7.800;2023-08-21T12:23:25;8.60;;;5.03;;
2662;SDS011;49701;48.072;7.800;2023-08-21T12:25:51;8.43;;;5.15;;
2662;SDS011;49701;48.072;7.800;2023-08-21T12:28:17;7.80;;;4.70;;
2662;SDS011;49701;48.072;7.800;2023-08-21T12:30:45;10.10;;;5.20;;
2662;SDS011;49701;48.072;7.800;2023-08-21T12:33:12;9.27;;;5.50;;
2662;SDS011;49701;48.072;7.800;2023-08-21T12:35:37;8.73;;;5.05;;
2662;SDS011;49701;48.072;7.800;2023-08-21T12:38:09;6.65;;;5.07;;
2662;SDS011;49701;48.072;7.800;2023-08-21T12:40:37;8.23;;;4.82;;
2662;SDS011;49701;48.072;7.800;2023-08-21T12:43:04;7.18;;;5.18;;
2662;SDS011;49701;48.072;7.800;2023-08-21T12:45:29;6.63;;;5.00;;
2662;SDS011;49701;48.072;7.800;2023-08-21T12:47:55;6.70;;;4.93;;
2662;SDS011;49701;48.072;7.800;2023-08-21T12:50:21;8.07;;;4.88;;
2662;SDS011;49701;48.072;7.800;2023-08-21T12:52:46;7.55;;;5.25;;
2662;SDS011;49701;48.072;7.800;2023-08-21T12:55:12;9.63;;;5.32;;
2662;SDS011;49701;48.072;7.800;2023-08-21T12:57:38;7.50;;;5.22;;
2662;SDS011;49701;48.072;7.800;2023-08-21T13:00:04;7.05;;;5.10;;
2662;SDS011;49701;48.072;7.800;2023-08-21T13:02:31;7.65;;;4.75;;
2662;SDS011;49701;48.072;7.800;2023-08-21T13:04:56;7.07;;;4.60;;
2662;SDS011;49701;48.072;7.800;2023-08-21T13:07:22;6.78;;;4.70;;
2662;SDS011;49701;48.072;7.800;2023-08-21T13:09:47;9.55;;;5.40;;
2662;SDS011;49701;48.072;7.800;2023-08-21T13:12:13;10.70;;;5.07;;
2662;SDS011;49701;48.072;7.800;2023-08-21T13:14:39;10.20;;;4.97;;
2662;SDS011;49701;48.072;7.800;2023-08-21T13:17:05;10.85;;;5.43;;
2662;SDS011;49701;48.072;7.800;2023-08-21T13:19:30;7.03;;;4.85;;
2662;SDS011;49701;48.072;7.800;2023-08-21T13:21:56;8.70;;;5.18;;
2662;SDS011;49701;48.072;7.800;2023-08-21T13:24:22;5.00;;;4.50;;
2662;SDS011;49701;48.072;7.800;2023-08-21T13:26:47;6.15;;;4.60;;
2662;SDS011;49701;48.072;7.800;2023-08-21T13:29:13;6.72;;;4.38;;
2662;SDS011;49701;48.072;7.800;2023-08-21T13:31:39;8.27;;;4.93;;
2662;SDS011;49701;48.072;7.800;2023-08-21T13:34:04;8.52;;;4.75;;
2662;SDS011;49701;48.072;7.800;2023-08-21T13:36:30;9.02;;;4.60;;
2662;SDS011;49701;48.072;7.800;2023-08-21T13:38:55;9.25;;;4.60;;
2662;SDS011;49701;48.072;7.800;2023-08-21T13:41:21;6.25;;;4.35;;
2662;SDS011;49701;48.072;7.800;2023-08-21T13:43:47;11.77;;;4.63;;
2662;SDS011;49701;48.072;7.800;2023-08-21T13:46:13;9.55;;;4.22;;
2662;SDS011;49701;48.072;7.800;2023-08-21T13:48:38;6.25;;;4.18;;
2662;SDS011;49701;48.072;7.800;2023-08-21T13:51:04;9.45;;;4.35;;
2662;SDS011;49701;48.072;7.800;2023-08-21T13:53:30;6.57;;;4.10;;
2662;SDS011;49701;48.072;7.800;2023-08-21T13:55:55;8.88;;;4.30;;
2662;SDS011;49701;48.072;7.800;2023-08-21T13:58:21;6.70;;;4.45;;
2662;SDS011;49701;48.072;7.800;2023-08-21T14:00:47;7.60;;;4.32;;
2662;SDS011;49701;48.072;7.800;2023-08-21T14:03:12;6.13;;;4.18;;
2662;SDS011;49701;48.072;7.800;2023-08-21T14:05:38;4.90;;;4.07;;
2662;SDS011;49701;48.072;7.800;2023-08-21T14:08:04;9.30;;;4.00;;
2662;SDS011;49701;48.072;7.800;2023-08-21T14:10:30;9.45;;;4.13;;
2662;SDS011;49701;48.072;7.800;2023-08-21T14:12:56;5.97;;;3.63;;
2662;SDS011;49701;48.072;7.800;2023-08-21T14:15:24;7.88;;;4.10;;
2662;SDS011;49701;48.072;7.800;2023-08-21T14:17:50;5.13;;;3.92;;
2662;SDS011;49701;48.072;7.800;2023-08-21T14:20:16;9.02;;;4.30;;
2662;SDS011;49701;48.072;7.800;2023-08-21T14:22:42;8.90;;;4.03;;
2662;SDS011;49701;48.072;7.800;2023-08-21T14:25:07;6.95;;;3.75;;
2662;SDS011;49701;48.072;7.800;2023-08-21T14:30:03;6.22;;;3.30;;
2662;SDS011;49701;48.072;7.800;2023-08-21T14:32:29;4.93;;;3.22;;
2662;SDS011;49701;48.072;7.800;2023-08-21T14:34:55;6.63;;;3.58;;
2662;SDS011;49701;48.072;7.800;2023-08-21T14:37:20;7.13;;;3.35;;
2662;SDS011;49701;48.072;7.800;2023-08-21T14:39:46;7.90;;;3.80;;
2662;SDS011;49701;48.072;7.800;2023-08-21T14:42:13;5.07;;;3.10;;
2662;SDS011;49701;48.072;7.800;2023-08-21T14:44:39;7.18;;;3.47;;
2662;SDS011;49701;48.072;7.800;2023-08-21T14:47:05;5.03;;;3.70;;
2662;SDS011;49701;48.072;7.800;2023-08-21T14:49:30;8.13;;;3.80;;
2662;SDS011;49701;48.072;7.800;2023-08-21T14:51:57;6.85;;;3.60;;
2662;SDS011;49701;48.072;7.800;2023-08-21T14:54:23;7.93;;;3.90;;
2662;SDS011;49701;48.072;7.800;2023-08-21T14:56:49;6.45;;;4.25;;
2662;SDS011;49701;48.072;7.800;2023-08-21T14:59:16;8.07;;;3.42;;
2662;SDS011;49701;48.072;7.800;2023-08-21T15:01:42;4.10;;;3.38;;
2662;SDS011;49701;48.072;7.800;2023-08-21T15:04:07;7.15;;;3.80;;
2662;SDS011;49701;48.072;7.800;2023-08-21T15:06:34;6.22;;;3.75;;
2662;SDS011;49701;48.072;7.800;2023-08-21T15:09:00;6.53;;;3.88;;
2662;SDS011;49701;48.072;7.800;2023-08-21T15:11:26;6.05;;;3.70;;
2662;SDS011;49701;48.072;7.800;2023-08-21T15:13:52;9.73;;;3.78;;
2662;SDS011;49701;48.072;7.800;2023-08-21T15:16:18;4.78;;;3.47;;
2662;SDS011;49701;48.072;7.800;2023-08-21T15:18:43;7.05;;;3.65;;
2662;SDS011;49701;48.072;7.800;2023-08-21T15:21:11;7.30;;;3.50;;
2662;SDS011;49701;48.072;7.800;2023-08-21T15:23:37;5.05;;;3.80;;
2662;SDS011;49701;48.072;7.800;2023-08-21T15:26:02;5.25;;;3.60;;
2662;SDS011;49701;48.072;7.800;2023-08-21T15:28:28;7.00;;;3.78;;
2662;SDS011;49701;48.072;7.800;2023-08-21T15:30:53;9.40;;;3.72;;
2662;SDS011;49701;48.072;7.800;2023-08-21T15:33:19;5.88;;;3.65;;
2662;SDS011;49701;48.072;7.800;2023-08-21T15:35:45;6.95;;;3.60;;
2662;SDS011;49701;48.072;7.800;2023-08-21T15:38:10;6.20;;;3.83;;
